Time;durP1;ratioP1;P1;durP2;ratioP2;P2;SDS_P1;SDS_P2;PMS_P1;PMS_P2;Temp;Humidity;BMP_temperature;BMP_pressure;BME280_temperature;BME280_humidity;BME280_pressure;Samples;Min_cycle;Max_cycle;Signal;HPM_P1;HPM_P2
2023/05/26 00:00:12;;;;;;;;;7.00;6.00;;;;;20.56;57.15;102233.69;5016175;28;45675;-78
2023/05/26 00:02:39;;;;;;;;;7.00;7.00;;;;;20.54;57.26;102238.19;5037944;28;47565;-79
2023/05/26 00:05:08;;;;;;;;;10.33;7.67;;;;;20.50;58.08;102231.94;5037555;28;45937;-80
2023/05/26 00:07:38;;;;;;;;;9.67;8.00;;;;;20.49;57.72;102235.53;5036287;28;45348;-79
2023/05/26 00:10:04;;;;;;;;;9.33;7.67;;;;;20.45;57.96;102230.16;5033119;28;45309;-80
2023/05/26 00:12:29;;;;;;;;;9.00;9.00;;;;;20.41;58.09;102223.94;5032646;28;46339;-80
2023/05/26 00:14:54;;;;;;;;;10.33;8.67;;;;;20.36;58.68;102232.03;5037020;28;45451;-78
2023/05/26 00:17:20;;;;;;;;;9.00;9.00;;;;;20.34;59.01;102232.94;5036792;28;45388;-79
2023/05/26 00:19:48;;;;;;;;;10.00;8.00;;;;;20.31;59.23;102227.59;5038357;28;45651;-79
2023/05/26 00:22:15;;;;;;;;;10.00;7.00;;;;;20.29;59.47;102226.69;5027312;28;46532;-79
2023/05/26 00:24:42;;;;;;;;;9.67;9.67;;;;;20.26;59.23;102227.63;5031758;28;45281;-79
2023/05/26 00:27:07;;;;;;;;;8.00;8.00;;;;;20.22;59.63;102225.84;5033515;28;45502;-79
2023/05/26 00:29:33;;;;;;;;;9.33;8.67;;;;;20.18;59.65;102234.81;5034349;28;58387;-78
2023/05/26 00:31:59;;;;;;;;;9.00;8.33;;;;;20.15;59.67;102235.75;5018057;28;46949;-79
2023/05/26 00:34:24;;;;;;;;;10.33;9.00;;;;;20.11;60.36;102223.25;5017182;28;68082;-78
2023/05/26 00:36:49;;;;;;;;;14.33;10.67;;;;;20.05;60.40;102225.97;5016676;28;45526;-80
2023/05/26 00:39:15;;;;;;;;;12.33;9.33;;;;;20.04;60.66;102223.31;5038122;28;45376;-80
2023/05/26 00:41:40;;;;;;;;;9.67;8.00;;;;;20.00;61.07;102218.84;5035319;28;69419;-79
2023/05/26 00:44:06;;;;;;;;;13.33;8.67;;;;;19.99;60.84;102217.09;5035050;28;45368;-78
2023/05/26 00:46:31;;;;;;;;;10.00;10.00;;;;;19.96;61.51;102212.59;5018308;28;45507;-80
2023/05/26 00:48:56;;;;;;;;;11.00;9.67;;;;;19.92;61.66;102204.59;5036741;28;57584;-80
2023/05/26 00:51:22;;;;;;;;;16.33;11.33;;;;;19.87;61.86;102208.22;5029738;28;57949;-80
2023/05/26 00:53:48;;;;;;;;;12.33;10.67;;;;;19.85;61.98;102211.78;5019778;28;45305;-78
2023/05/26 00:56:16;;;;;;;;;13.00;11.67;;;;;19.84;62.07;102210.00;5018748;28;63769;-78
2023/05/26 00:58:45;;;;;;;;;14.33;11.00;;;;;19.79;62.04;102210.03;5029837;28;45261;-79
2023/05/26 01:01:12;;;;;;;;;14.00;10.00;;;;;19.75;62.43;102218.97;5025119;28;46909;-79
2023/05/26 01:03:38;;;;;;;;;10.00;10.00;;;;;19.71;62.92;102214.56;5036037;28;45417;-80
2023/05/26 01:06:04;;;;;;;;;12.00;10.00;;;;;19.68;63.24;102219.03;5033086;28;45423;-80
2023/05/26 01:08:29;;;;;;;;;14.00;12.33;;;;;19.63;63.20;102219.94;5032968;28;45587;-79
2023/05/26 01:11:00;;;;;;;;;18.00;13.00;;;;;19.60;63.60;102219.03;5029223;28;47174;-79
2023/05/26 01:13:29;;;;;;;;;15.00;12.00;;;;;19.55;63.75;102208.34;5035525;28;45451;-80
2023/05/26 01:15:58;;;;;;;;;14.00;12.67;;;;;19.53;64.12;102214.56;5033847;28;45557;-80
2023/05/26 01:18:54;;;;;;;;;14.67;14.00;;;;;19.49;64.63;102210.13;5018791;28;45476;-79
2023/05/26 01:21:21;;;;;;;;;12.00;12.00;;;;;19.47;64.97;102212.81;5029808;28;47610;-79
2023/05/26 01:24:05;;;;;;;;;15.33;14.00;;;;;19.43;65.28;102213.72;5036387;28;45441;-77
2023/05/26 01:26:39;;;;;;;;;13.00;12.33;;;;;19.37;65.84;102220.00;5036805;28;45371;-78
2023/05/26 01:29:08;;;;;;;;;14.00;12.00;;;;;19.33;65.51;102218.25;5026292;28;45733;-79
2023/05/26 01:31:34;;;;;;;;;21.33;15.67;;;;;19.28;66.28;102225.41;5035836;28;46906;-78
2023/05/26 01:34:00;;;;;;;;;18.00;16.00;;;;;19.25;66.17;102217.34;5035008;28;45225;-78
2023/05/26 01:36:28;;;;;;;;;17.33;13.00;;;;;19.22;66.30;102222.69;5033348;28;45334;-79
2023/05/26 01:38:54;;;;;;;;;17.67;14.33;;;;;19.19;67.12;102220.06;5032176;28;45312;-79
2023/05/26 01:41:43;;;;;;;;;13.67;11.33;;;;;19.16;67.13;102221.84;5018264;28;48061;-78
2023/05/26 01:44:14;;;;;;;;;23.33;14.00;;;;;19.11;67.19;102222.72;5018421;28;45588;-79
2023/05/26 01:46:50;;;;;;;;;11.00;11.00;;;;;19.07;67.91;102218.31;5031795;28;45299;-78
2023/05/26 01:49:18;;;;;;;;;15.67;12.67;;;;;19.02;68.05;102221.88;5032157;28;45304;-79
2023/05/26 01:51:54;;;;;;;;;11.33;11.33;;;;;19.00;68.12;102231.69;5017380;28;46811;-78
2023/05/26 01:54:21;;;;;;;;;16.67;13.67;;;;;18.95;68.52;102234.34;5034966;28;46692;-79
2023/05/26 01:56:47;;;;;;;;;14.00;11.33;;;;;18.93;68.47;102219.22;5036497;28;45257;-78
2023/05/26 01:59:13;;;;;;;;;12.00;12.00;;;;;18.89;69.05;102228.13;5012823;28;45435;-80
2023/05/26 02:01:38;;;;;;;;;14.00;12.00;;;;;18.87;69.66;102235.28;5028270;28;46193;-80
2023/05/26 02:04:04;;;;;;;;;16.00;13.33;;;;;18.84;69.61;102236.16;5034622;28;45472;-79
2023/05/26 02:06:29;;;;;;;;;11.33;10.33;;;;;18.79;69.73;102230.81;5036420;28;45303;-79
2023/05/26 02:08:55;;;;;;;;;11.33;10.00;;;;;18.75;70.26;102237.06;5032309;28;48961;-79
2023/05/26 02:11:20;;;;;;;;;14.67;12.00;;;;;18.73;70.24;102243.31;5035659;28;47301;-79
2023/05/26 02:13:46;;;;;;;;;19.00;13.00;;;;;18.70;70.66;102237.97;5017193;28;45530;-79
2023/05/26 02:16:13;;;;;;;;;18.00;12.67;;;;;18.68;70.85;102234.38;5031234;28;45474;-80
2023/05/26 02:18:39;;;;;;;;;15.67;12.00;;;;;18.63;70.24;102236.13;5035680;28;45582;-79
2023/05/26 02:21:05;;;;;;;;;13.67;12.00;;;;;18.59;70.56;102236.16;5033985;28;47387;-79
2023/05/26 02:23:31;;;;;;;;;10.00;10.00;;;;;18.55;71.08;102234.34;5032213;28;45254;-79
2023/05/26 02:25:56;;;;;;;;;9.33;9.33;;;;;18.53;70.72;102232.56;5034193;28;46168;-79
2023/05/26 02:28:21;;;;;;;;;12.67;10.67;;;;;18.48;70.64;102232.59;5027573;28;45455;-80
2023/05/26 02:30:47;;;;;;;;;13.00;8.33;;;;;18.41;70.50;102227.22;5032344;28;66238;-79
2023/05/26 02:33:12;;;;;;;;;14.00;9.00;;;;;18.39;70.77;102226.31;5028822;28;54443;-80
2023/05/26 02:35:38;;;;;;;;;13.00;10.00;;;;;18.33;70.98;102232.56;5033513;28;45427;-79
2023/05/26 02:38:03;;;;;;;;;13.33;10.33;;;;;18.28;71.46;102235.22;5033977;28;61866;-79
2023/05/26 02:40:28;;;;;;;;;14.00;10.00;;;;;18.25;71.66;102235.22;5029969;28;66357;-80
2023/05/26 02:42:54;;;;;;;;;17.33;10.67;;;;;18.21;72.41;102228.06;5033918;28;63265;-79
2023/05/26 02:45:19;;;;;;;;;12.33;10.00;;;;;18.19;72.77;102224.50;5035463;28;45309;-80
2023/05/26 02:47:45;;;;;;;;;17.33;9.00;;;;;18.16;73.05;102229.84;5031569;28;45486;-78
2023/05/26 02:50:10;;;;;;;;;14.33;10.33;;;;;18.15;73.33;102238.75;5035461;28;52374;-80
2023/05/26 02:52:35;;;;;;;;;11.00;9.67;;;;;18.13;73.50;102234.31;5026473;28;46391;-79
2023/05/26 02:55:01;;;;;;;;;8.33;8.33;;;;;18.11;73.90;102231.63;5035488;28;45235;-79
2023/05/26 02:57:26;;;;;;;;;15.33;10.00;;;;;18.06;74.12;102231.63;5017333;28;55252;-79
2023/05/26 02:59:51;;;;;;;;;13.33;11.33;;;;;18.04;74.32;102225.34;5016406;28;68844;-78
2023/05/26 03:02:17;;;;;;;;;8.33;8.33;;;;;18.00;74.56;102230.69;5035065;28;63172;-78
2023/05/26 03:04:42;;;;;;;;;16.33;9.67;;;;;17.97;74.62;102222.69;5031597;28;61233;-79
2023/05/26 03:07:07;;;;;;;;;9.67;8.67;;;;;17.94;74.98;102219.97;5031616;28;61236;-79
2023/05/26 03:09:33;;;;;;;;;12.33;9.33;;;;;17.91;75.03;102217.31;5034438;28;47507;-79
2023/05/26 03:12:00;;;;;;;;;10.67;8.67;;;;;17.90;75.39;102220.88;5035080;28;45328;-80
2023/05/26 03:14:26;;;;;;;;;13.67;8.33;;;;;17.88;75.38;102225.31;5025538;28;60146;-79
2023/05/26 03:16:52;;;;;;;;;13.67;11.33;;;;;17.84;75.63;102216.38;5031770;28;45571;-79
2023/05/26 03:19:17;;;;;;;;;14.00;8.00;;;;;17.82;75.89;102219.97;5029050;28;47220;-78
2023/05/26 03:21:43;;;;;;;;;10.67;8.33;;;;;17.79;76.14;102216.41;5030296;28;45429;-79
2023/05/26 03:24:08;;;;;;;;;13.33;9.00;;;;;17.76;76.13;102219.03;5030276;28;45358;-78
2023/05/26 03:26:33;;;;;;;;;13.00;10.00;;;;;17.73;76.32;102207.44;5030553;28;45301;-80
2023/05/26 03:28:59;;;;;;;;;14.00;8.00;;;;;17.72;76.63;102219.91;5025005;28;66242;-78
2023/05/26 03:31:26;;;;;;;;;12.67;7.33;;;;;17.69;76.99;102209.19;5034104;28;63172;-78
2023/05/26 03:33:51;;;;;;;;;7.67;6.00;;;;;17.68;77.03;102220.75;5034344;28;45419;-80
2023/05/26 03:36:17;;;;;;;;;9.33;6.67;;;;;17.64;77.31;102223.44;5023694;28;45630;-78
2023/05/26 03:38:43;;;;;;;;;14.00;9.00;;;;;17.62;77.28;102214.50;5034779;28;46276;-79
2023/05/26 03:41:08;;;;;;;;;11.00;9.67;;;;;17.61;77.54;102218.94;5034886;28;45214;-79
2023/05/26 03:43:33;;;;;;;;;13.67;11.00;;;;;17.59;77.64;102219.84;5034646;28;50758;-80
2023/05/26 03:46:00;;;;;;;;;13.67;9.00;;;;;17.57;77.75;102227.81;5035085;28;45257;-78
2023/05/26 03:48:25;;;;;;;;;9.67;6.67;;;;;17.53;78.13;102220.72;5034819;28;46354;-81
2023/05/26 03:50:51;;;;;;;;;14.33;9.67;;;;;17.50;77.86;102212.66;5032031;28;53148;-80
2023/05/26 03:53:16;;;;;;;;;10.33;8.00;;;;;17.49;78.29;102218.91;5034185;28;45505;-79
2023/05/26 03:55:42;;;;;;;;;11.33;9.33;;;;;17.47;78.49;102212.66;5034149;28;59352;-80
2023/05/26 03:58:07;;;;;;;;;11.33;7.67;;;;;17.43;78.58;102214.44;5028796;28;71549;-79
2023/05/26 04:00:32;;;;;;;;;8.00;8.00;;;;;17.45;78.93;102219.78;5033302;28;64358;-80
2023/05/26 04:02:59;;;;;;;;;12.33;9.33;;;;;17.41;78.95;102213.50;5032418;28;63672;-79
2023/05/26 04:05:25;;;;;;;;;11.00;8.00;;;;;17.40;79.19;102208.16;5038009;28;46374;-78
2023/05/26 04:07:50;;;;;;;;;14.33;8.67;;;;;17.41;79.28;102223.31;5032022;28;46340;-80
2023/05/26 04:10:16;;;;;;;;;8.67;8.67;;;;;17.37;79.52;102216.19;5038073;28;45410;-80
2023/05/26 04:12:41;;;;;;;;;7.67;7.33;;;;;17.35;79.42;102220.59;5032763;28;53229;-80
2023/05/26 04:15:09;;;;;;;;;11.67;9.00;;;;;17.34;79.89;102214.38;5032390;28;45524;-80
2023/05/26 04:17:34;;;;;;;;;13.00;9.00;;;;;17.30;79.95;102215.22;5036674;28;47321;-79
2023/05/26 04:20:00;;;;;;;;;17.67;9.33;;;;;17.29;80.00;102209.00;5031128;28;45387;-78
2023/05/26 04:22:25;;;;;;;;;10.33;8.00;;;;;17.26;80.09;102217.03;5032078;28;45294;-78
2023/05/26 04:24:51;;;;;;;;;10.67;7.00;;;;;17.24;80.28;102215.22;5036344;28;60061;-78
2023/05/26 04:27:16;;;;;;;;;15.33;10.00;;;;;17.25;80.46;102217.88;5029048;28;66630;-79
2023/05/26 04:29:41;;;;;;;;;15.67;7.00;;;;;17.24;80.54;102226.78;4996240;28;62439;-78
2023/05/26 04:32:08;;;;;;;;;17.75;15.25;;;;;17.22;80.96;102225.88;5031819;28;57564;-78
2023/05/26 04:34:34;;;;;;;;;13.33;11.67;;;;;17.22;80.97;102225.00;5033162;28;45446;-81
2023/05/26 04:37:04;;;;;;;;;12.00;7.67;;;;;17.19;81.01;102220.50;5036854;28;46792;-80
2023/05/26 04:39:30;;;;;;;;;11.67;8.00;;;;;17.18;81.02;102218.75;5036207;28;45204;-78
2023/05/26 04:41:55;;;;;;;;;10.67;7.33;;;;;17.18;81.27;102224.06;5033162;28;45488;-80
2023/05/26 04:44:22;;;;;;;;;7.33;7.00;;;;;17.17;81.64;102226.75;5030834;28;63199;-81
2023/05/26 04:46:48;;;;;;;;;13.00;10.00;;;;;17.17;81.77;102227.63;5032388;28;45822;-83
2023/05/26 04:49:16;;;;;;;;;11.00;7.67;;;;;17.18;81.69;102226.75;5030016;28;46377;-81
2023/05/26 04:51:41;;;;;;;;;8.00;8.00;;;;;17.19;81.86;102231.19;5031350;28;45473;-78
2023/05/26 04:54:06;;;;;;;;;13.00;9.00;;;;;17.18;81.66;102232.09;5027301;28;45581;-82
2023/05/26 04:56:32;;;;;;;;;8.67;8.00;;;;;17.18;81.34;102237.41;5029899;28;45763;-79
2023/05/26 04:58:58;;;;;;;;;12.00;9.00;;;;;17.14;80.58;102238.28;5029267;28;63699;-81
2023/05/26 05:01:24;;;;;;;;;12.67;9.67;;;;;17.13;80.82;102239.16;5032251;28;45581;-86
2023/05/26 05:03:49;;;;;;;;;17.67;8.67;;;;;17.12;81.39;102242.72;5008730;28;45587;-78
2023/05/26 05:06:14;;;;;;;;;11.33;10.33;;;;;17.15;81.84;102244.50;5026199;28;69055;-82
2023/05/26 05:08:40;;;;;;;;;10.00;8.33;;;;;17.18;82.44;102245.44;5023431;28;57629;-79
2023/05/26 05:11:05;;;;;;;;;10.67;7.67;;;;;17.18;82.45;102253.44;5025161;28;62403;-80
2023/05/26 05:13:32;;;;;;;;;9.33;7.00;;;;;17.19;82.96;102254.31;5031771;28;45534;-80
2023/05/26 05:15:57;;;;;;;;;11.67;8.67;;;;;17.21;82.69;102250.81;5031724;28;45849;-76
2023/05/26 05:18:22;;;;;;;;;11.00;9.00;;;;;17.19;82.61;102257.88;5031806;28;66752;-77
2023/05/26 05:20:48;;;;;;;;;12.00;10.33;;;;;17.22;82.41;102262.38;5034031;28;45357;-76
2023/05/26 05:23:13;;;;;;;;;8.00;8.00;;;;;17.24;82.07;102265.94;5029387;28;45619;-78
2023/05/26 05:25:38;;;;;;;;;14.67;8.67;;;;;17.23;82.67;102281.06;5008295;28;69413;-77
2023/05/26 05:28:04;;;;;;;;;9.00;8.33;;;;;17.25;83.19;102273.03;5122590;22;47728;-77
2023/05/26 05:30:29;;;;;;;;;12.67;8.67;;;;;17.26;83.48;102274.84;5008972;28;45436;-77
2023/05/26 05:32:54;;;;;;;;;15.00;9.00;;;;;17.26;83.17;102265.06;5010234;28;59500;-77
2023/05/26 05:35:20;;;;;;;;;12.67;10.00;;;;;17.29;83.16;102274.84;5007688;28;47142;-77
2023/05/26 05:37:45;;;;;;;;;12.00;10.67;;;;;17.33;83.39;102283.78;5015217;28;45384;-77
2023/05/26 05:40:11;;;;;;;;;13.67;10.00;;;;;17.34;83.39;102274.91;5014635;28;45430;-76
2023/05/26 05:42:36;;;;;;;;;15.33;9.00;;;;;17.36;83.44;102274.00;5012681;28;45659;-77
2023/05/26 05:45:03;;;;;;;;;10.33;10.00;;;;;17.37;83.61;102272.25;5009099;28;64690;-77
2023/05/26 05:47:29;;;;;;;;;12.00;9.00;;;;;17.36;83.61;102273.13;5012960;28;45858;-79
2023/05/26 05:49:54;;;;;;;;;13.67;9.33;;;;;17.38;83.73;102277.59;5006106;28;64966;-77
2023/05/26 05:52:19;;;;;;;;;13.00;9.67;;;;;17.40;83.94;102280.25;5020308;28;45368;-77
2023/05/26 05:54:45;;;;;;;;;17.67;11.00;;;;;17.41;83.76;102284.72;5026696;28;46366;-77
2023/05/26 05:57:10;;;;;;;;;13.33;10.67;;;;;17.40;83.57;102283.81;5017431;28;64920;-78
2023/05/26 05:59:35;;;;;;;;;13.33;9.00;;;;;17.41;83.70;102288.28;5014305;28;63396;-78
2023/05/26 06:02:01;;;;;;;;;16.33;10.67;;;;;17.41;83.84;102293.63;5010571;28;58342;-77
2023/05/26 06:04:26;;;;;;;;;11.67;11.67;;;;;17.43;84.04;102293.66;5008520;28;70410;-75
2023/05/26 06:06:51;;;;;;;;;13.33;10.00;;;;;17.45;84.27;102298.09;5013749;28;67858;-80
2023/05/26 06:09:17;;;;;;;;;16.33;11.00;;;;;17.47;84.37;102291.00;5006114;28;45639;-77
2023/05/26 06:11:43;;;;;;;;;13.67;10.67;;;;;17.50;84.45;102298.13;5013072;28;53621;-76
2023/05/26 06:14:08;;;;;;;;;19.00;13.50;;;;;17.52;84.66;102294.59;5002358;28;46688;-77
2023/05/26 06:16:34;;;;;;;;;10.33;9.00;;;;;17.50;85.04;102298.13;5006288;28;45495;-79
2023/05/26 06:18:59;;;;;;;;;14.50;11.75;;;;;17.43;85.58;102290.97;5007594;28;62101;-78
2023/05/26 06:21:24;;;;;;;;;17.67;12.67;;;;;17.36;86.25;102305.16;5010729;28;45425;-79
2023/05/26 06:23:50;;;;;;;;;14.00;9.67;;;;;17.27;87.02;102314.00;5012707;28;47326;-78
2023/05/26 06:26:15;;;;;;;;;10.67;10.00;;;;;17.18;87.74;102312.16;5013946;28;45464;-77
2023/05/26 06:28:41;;;;;;;;;16.75;13.00;;;;;17.11;88.37;102307.66;5014930;28;63652;-78
2023/05/26 06:31:06;;;;;;;;;15.25;10.75;;;;;17.06;88.38;102301.41;5009958;28;61448;-78
2023/05/26 06:33:31;;;;;;;;;7.67;7.00;;;;;16.99;89.28;102305.81;5015312;28;62491;-77
2023/05/26 06:35:56;;;;;;;;;11.00;6.75;;;;;16.93;89.65;102305.72;5011421;28;65377;-77
2023/05/26 06:38:22;;;;;;;;;11.00;10.00;;;;;16.84;90.31;102305.66;5011022;28;54845;-78
2023/05/26 06:40:47;;;;;;;;;11.00;9.25;;;;;16.83;90.41;102301.22;4996846;28;45714;-78
2023/05/26 06:43:13;;;;;;;;;13.50;9.50;;;;;16.84;90.90;102299.44;5012933;28;70074;-79
2023/05/26 06:45:38;;;;;;;;;13.33;10.00;;;;;16.85;91.58;102299.44;5010096;28;45471;-76
2023/05/26 06:48:03;;;;;;;;;13.67;10.67;;;;;16.86;92.42;102300.34;5014403;28;47073;-76
2023/05/26 06:50:29;;;;;;;;;14.50;12.25;;;;;16.88;93.54;102296.78;5012129;28;45656;-76
2023/05/26 06:52:54;;;;;;;;;13.00;10.33;;;;;16.89;93.58;102301.28;5010194;28;46450;-76
2023/05/26 06:55:19;;;;;;;;;19.75;11.75;;;;;16.88;93.10;102303.91;5011848;28;57918;-78
2023/05/26 06:57:45;;;;;;;;;16.67;11.00;;;;;16.89;92.76;102303.03;5012171;28;65713;-76
2023/05/26 07:00:11;;;;;;;;;8.67;8.00;;;;;16.87;93.35;102296.78;5014209;28;61554;-76
2023/05/26 07:02:36;;;;;;;;;15.25;11.00;;;;;16.90;93.31;102308.38;5007213;28;47448;-76
2023/05/26 07:05:02;;;;;;;;;16.00;11.75;;;;;16.88;93.41;102298.56;5013056;28;45501;-75
2023/05/26 07:07:27;;;;;;;;;15.50;10.25;;;;;16.86;93.95;102303.91;5013250;28;45480;-77
2023/05/26 07:09:52;;;;;;;;;14.33;9.00;;;;;16.89;94.71;102295.03;5013775;28;62278;-76
2023/05/26 07:12:19;;;;;;;;;12.50;10.00;;;;;16.89;95.57;102295.94;5012732;28;46105;-77
2023/05/26 07:14:46;;;;;;;;;11.67;10.00;;;;;16.91;95.40;102291.50;5013924;28;45432;-77
2023/05/26 07:17:11;;;;;;;;;21.67;11.00;;;;;16.93;96.44;102294.16;5009225;28;45602;-76
2023/05/26 07:19:37;;;;;;;;;12.00;11.00;;;;;16.94;95.55;102285.31;5009902;28;45508;-77
2023/05/26 07:22:02;;;;;;;;;14.50;11.75;;;;;17.00;96.02;102290.69;5012855;28;69946;-79
2023/05/26 07:24:27;;;;;;;;;16.00;12.25;;;;;17.03;95.86;102294.25;5008499;28;45477;-77
2023/05/26 07:26:53;;;;;;;;;14.25;13.00;;;;;17.06;96.00;102285.38;5011257;28;52621;-78
2023/05/26 07:29:18;;;;;;;;;13.00;11.00;;;;;17.12;96.04;102282.75;5011774;28;45617;-76
2023/05/26 07:31:44;;;;;;;;;13.00;10.00;;;;;17.21;95.65;102292.63;5010854;28;46763;-75
2023/05/26 07:34:10;;;;;;;;;13.50;13.00;;;;;17.28;94.82;102300.66;5008043;28;45598;-77
2023/05/26 07:36:35;;;;;;;;;16.75;13.50;;;;;17.38;94.48;102296.28;5007081;28;45526;-76
2023/05/26 07:39:01;;;;;;;;;11.00;11.00;;;;;17.51;94.03;102291.91;5016025;28;45523;-76
2023/05/26 07:41:26;;;;;;;;;16.00;10.67;;;;;17.61;93.96;102291.06;5014229;28;60313;-77
2023/05/26 07:43:52;;;;;;;;;11.67;11.00;;;;;17.71;93.33;102292.00;5008720;28;45490;-77
2023/05/26 07:46:17;;;;;;;;;14.33;10.00;;;;;17.82;93.18;102292.09;5013229;28;45642;-76
2023/05/26 07:48:42;;;;;;;;;11.67;9.67;;;;;17.92;93.32;102285.91;5012753;28;45298;-79
2023/05/26 07:51:08;;;;;;;;;14.33;11.33;;;;;18.01;92.80;102292.19;5012728;28;62118;-75
2023/05/26 07:53:34;;;;;;;;;21.33;10.67;;;;;18.11;92.66;102293.13;5017166;28;67878;-78
2023/05/26 07:56:00;;;;;;;;;12.67;12.00;;;;;18.22;92.58;102294.03;5016154;28;45504;-76
2023/05/26 07:58:25;;;;;;;;;12.00;12.00;;;;;18.31;91.67;102294.03;5014363;28;53508;-76
2023/05/26 08:00:50;;;;;;;;;10.00;8.00;;;;;18.40;91.26;102297.63;5015144;28;67460;-76
2023/05/26 08:03:15;;;;;;;;;13.00;9.67;;;;;18.48;91.21;102290.50;5016053;28;45351;-76
2023/05/26 08:05:42;;;;;;;;;19.67;11.67;;;;;18.54;91.17;102287.88;5015722;28;45269;-76
2023/05/26 08:08:08;;;;;;;;;15.67;10.67;;;;;18.64;90.95;102294.09;5017372;28;45472;-76
2023/05/26 08:10:33;;;;;;;;;18.67;10.33;;;;;18.69;90.43;102287.00;4986043;28;46464;-77
2023/05/26 08:12:58;;;;;;;;;16.67;11.00;;;;;18.76;90.40;102288.81;4996083;28;69014;-75
2023/05/26 08:15:24;;;;;;;;;16.00;9.67;;;;;18.82;89.73;102289.69;5009037;28;66225;-76
2023/05/26 08:17:50;;;;;;;;;11.67;11.67;;;;;18.86;88.87;102285.25;5008056;28;45448;-75
2023/05/26 08:20:16;;;;;;;;;11.00;10.33;;;;;18.92;89.24;102281.66;5006003;28;46485;-76
2023/05/26 08:22:41;;;;;;;;;11.67;10.00;;;;;18.99;88.88;102280.75;5004801;28;45436;-75
2023/05/26 08:25:07;;;;;;;;;17.67;12.33;;;;;19.03;88.96;102280.78;5010903;28;48670;-76
2023/05/26 08:27:32;;;;;;;;;14.33;12.00;;;;;19.10;88.63;102290.56;5016129;28;45594;-75
2023/05/26 08:29:57;;;;;;;;;14.67;11.00;;;;;19.17;88.64;102282.53;5009867;28;46594;-75
2023/05/26 08:32:23;;;;;;;;;15.00;10.00;;;;;19.21;88.48;102284.31;5011892;28;58807;-75
2023/05/26 08:34:48;;;;;;;;;15.67;11.00;;;;;19.26;88.33;102291.44;5009994;28;45392;-76
2023/05/26 08:37:15;;;;;;;;;15.00;10.67;;;;;19.31;87.64;102286.97;5013345;28;54379;-76
2023/05/26 08:39:41;;;;;;;;;12.00;12.00;;;;;19.37;87.49;102284.28;5014511;28;46697;-75
2023/05/26 08:42:15;;;;;;;;;16.67;10.00;;;;;19.43;87.71;102277.13;5005053;28;45395;-74
2023/05/26 08:44:41;;;;;;;;;12.67;10.67;;;;;19.49;87.60;102285.13;5011276;28;45467;-75
2023/05/26 08:47:07;;;;;;;;;13.67;12.33;;;;;19.54;86.86;102284.22;4995067;28;45348;-76
2023/05/26 08:49:36;;;;;;;;;12.67;10.33;;;;;19.56;86.69;102284.25;5012302;28;52140;-76
2023/05/26 08:52:13;;;;;;;;;11.67;10.67;;;;;19.58;86.59;102279.75;5008673;28;45541;-76
2023/05/26 08:54:41;;;;;;;;;8.67;8.67;;;;;19.61;85.80;102277.13;5011034;28;45350;-74
2023/05/26 08:57:07;;;;;;;;;12.33;9.00;;;;;19.63;86.02;102278.00;5012186;28;45594;-76
2023/05/26 08:59:32;;;;;;;;;12.67;11.00;;;;;19.68;86.10;102281.53;4997464;28;46583;-74
2023/05/26 09:01:58;;;;;;;;;14.67;11.67;;;;;19.72;85.91;102277.97;5012779;28;45396;-76
2023/05/26 09:04:29;;;;;;;;;16.67;11.00;;;;;19.77;85.59;102270.81;5011014;28;45852;-75
2023/05/26 09:06:54;;;;;;;;;13.33;10.33;;;;;19.80;85.48;102268.09;5005736;28;45576;-75
2023/05/26 09:09:20;;;;;;;;;13.33;10.00;;;;;19.86;85.31;102276.09;5014673;28;71336;-75
2023/05/26 09:11:48;;;;;;;;;13.33;11.00;;;;;19.93;85.54;102273.41;5012994;28;45526;-74
2023/05/26 09:14:16;;;;;;;;;19.67;10.00;;;;;19.98;85.43;102272.50;5011640;28;45473;-75
2023/05/26 09:16:41;;;;;;;;;14.00;11.00;;;;;20.04;86.06;102271.56;5012027;28;45312;-77
2023/05/26 09:19:07;;;;;;;;;16.67;10.67;;;;;20.08;84.48;102267.94;5011467;28;70542;-75
2023/05/26 09:21:32;;;;;;;;;15.33;10.33;;;;;20.12;84.78;102272.41;5012925;28;45382;-75
2023/05/26 09:23:59;;;;;;;;;12.33;9.00;;;;;20.17;85.07;102278.63;5009250;28;65539;-75
2023/05/26 09:26:30;;;;;;;;;11.00;7.67;;;;;20.23;84.91;102275.03;5014270;28;45404;-75
2023/05/26 09:28:55;;;;;;;;;18.33;11.33;;;;;20.26;84.52;102280.38;5012432;28;47478;-75
2023/05/26 09:31:20;;;;;;;;;9.67;7.33;;;;;20.31;85.00;102279.47;5011677;28;45534;-75
2023/05/26 09:33:46;;;;;;;;;13.33;11.67;;;;;20.39;84.21;102288.31;5012752;28;45433;-75
2023/05/26 09:36:12;;;;;;;;;10.33;10.33;;;;;20.42;83.81;102292.81;5013214;28;45488;-76
2023/05/26 09:38:41;;;;;;;;;13.67;7.67;;;;;20.47;83.29;102291.00;5013372;28;46615;-75
2023/05/26 09:41:06;;;;;;;;;13.00;9.00;;;;;20.49;83.16;102277.56;5015252;28;45424;-75
2023/05/26 09:43:33;;;;;;;;;10.00;9.33;;;;;20.50;83.29;102276.66;5011558;28;63505;-75
2023/05/26 09:45:58;;;;;;;;;12.00;9.67;;;;;20.54;83.38;102287.38;5015152;28;45395;-75
2023/05/26 09:48:23;;;;;;;;;7.67;7.00;;;;;20.59;83.00;102285.56;5015178;28;54743;-76
2023/05/26 09:50:50;;;;;;;;;15.67;10.33;;;;;20.61;82.53;102277.47;5016495;28;45293;-75
2023/05/26 09:53:16;;;;;;;;;10.33;7.00;;;;;20.62;81.66;102276.59;5014939;28;45403;-74
2023/05/26 09:55:43;;;;;;;;;12.33;9.00;;;;;20.64;82.38;102266.72;5014380;28;61320;-74
2023/05/26 09:58:10;;;;;;;;;11.33;11.33;;;;;20.66;82.00;102272.97;5010918;28;46713;-81
2023/05/26 10:00:43;;;;;;;;;13.33;11.00;;;;;20.73;81.78;102268.47;5000312;28;45563;-75
2023/05/26 10:03:10;;;;;;;;;18.00;14.00;;;;;20.77;81.51;102272.88;5007044;28;45374;-80
2023/05/26 10:05:45;;;;;;;;;27.33;23.67;;;;;20.81;81.26;102271.97;4997878;28;45687;-78
2023/05/26 10:08:11;;;;;;;;;73.50;52.00;;;;;20.80;81.13;102276.44;5003657;28;45716;-78
2023/05/26 10:10:36;;;;;;;;;60.75;45.50;;;;;20.84;81.12;102274.63;5008740;28;45443;-78
2023/05/26 10:13:03;;;;;;;;;90.50;66.50;;;;;20.89;81.23;102275.47;5002398;28;45602;-76
2023/05/26 10:15:29;;;;;;;;;74.75;54.75;;;;;20.93;81.26;102275.44;5004005;28;45462;-76
2023/05/26 10:17:56;;;;;;;;;15.00;13.00;;;;;21.01;80.57;102277.16;5008597;28;68751;-77
2023/05/26 10:20:22;;;;;;;;;20.67;18.00;;;;;21.02;80.79;102274.44;5007087;28;45506;-78
2023/05/26 10:23:00;;;;;;;;;13.33;12.33;;;;;21.06;80.75;102268.16;5008420;28;45741;-75
2023/05/26 10:25:39;;;;;;;;;16.00;11.00;;;;;21.11;80.67;102270.81;5012767;28;45660;-76
2023/05/26 10:28:26;;;;;;;;;15.67;13.00;;;;;21.19;80.68;102275.16;5013467;28;47550;-76
2023/05/26 10:31:00;;;;;;;;;14.00;11.33;;;;;21.28;80.56;102267.94;5010716;28;45521;-76
2023/05/26 10:33:37;;;;;;;;;7.00;6.33;;;;;21.35;80.72;102269.69;4995595;28;45308;-75
2023/05/26 10:36:06;;;;;;;;;11.67;9.00;;;;;21.41;80.01;102262.47;5006887;28;45718;-75
2023/05/26 10:38:52;;;;;;;;;11.33;9.00;;;;;21.46;79.47;102257.00;5014862;28;47606;-75
2023/05/26 10:41:40;;;;;;;;;46.75;39.50;;;;;21.51;79.52;102262.34;5012489;28;45244;-76
2023/05/26 10:44:06;;;;;;;;;57.00;42.50;;;;;21.56;79.97;102260.50;5012409;28;45356;-75
2023/05/26 10:46:39;;;;;;;;;18.33;16.00;;;;;21.63;79.55;102257.72;4998131;28;45547;-75
2023/05/26 10:49:19;;;;;;;;;28.33;21.67;;;;;21.70;79.26;102254.03;5012229;28;46767;-76
2023/05/26 10:51:54;;;;;;;;;14.67;13.33;;;;;21.75;79.58;102245.91;5011374;28;45433;-76
2023/05/26 10:54:22;;;;;;;;;14.67;12.33;;;;;21.82;79.21;102241.34;5014271;28;45449;-76
2023/05/26 10:56:52;;;;;;;;;13.00;10.67;;;;;21.87;79.12;102245.75;5010103;28;45625;-75
2023/05/26 10:59:36;;;;;;;;;14.33;8.67;;;;;21.92;78.72;102234.94;5010841;28;47557;-77
2023/05/26 11:02:07;;;;;;;;;19.33;11.00;;;;;21.97;78.71;102238.47;5013210;28;45573;-75
2023/05/26 11:04:43;;;;;;;;;6.67;6.67;;;;;22.06;78.44;102243.72;5009552;28;45278;-76
2023/05/26 11:07:22;;;;;;;;;10.00;9.00;;;;;22.13;78.25;102231.09;5012232;28;45463;-76
2023/05/26 11:10:05;;;;;;;;;11.67;10.00;;;;;22.23;78.51;102228.25;5009076;28;46839;-76
2023/05/26 11:12:35;;;;;;;;;9.67;7.33;;;;;22.34;78.30;102230.75;5013805;28;45345;-76